createdAt,value
2019-06-15T00:01:49.237Z,12.20
2019-06-15T00:04:18.172Z,11.00
2019-06-15T00:06:47.144Z,10.30
2019-06-15T00:09:18.333Z,10.07
2019-06-15T00:11:49.558Z,9.73
2019-06-15T00:14:21.484Z,9.53
2019-06-15T00:16:50.436Z,9.33
2019-06-15T00:19:19.409Z,11.30
2019-06-15T00:21:48.381Z,9.83
2019-06-15T00:24:17.412Z,9.37
2019-06-15T00:26:46.297Z,9.87
2019-06-15T00:29:15.296Z,10.70
2019-06-15T00:31:44.269Z,9.70
2019-06-15T00:34:13.210Z,10.70
2019-06-15T00:36:42.126Z,10.13
2019-06-15T00:39:11.147Z,10.73
2019-06-15T00:41:40.211Z,10.43
2019-06-15T00:44:09.247Z,10.13
2019-06-15T00:46:38.158Z,10.20
2019-06-15T00:49:07.141Z,10.77
2019-06-15T00:51:36.072Z,10.77
2019-06-15T00:54:05.141Z,10.80
2019-06-15T00:56:33.989Z,11.33
2019-06-15T00:59:03.116Z,10.07
2019-06-15T01:01:34.769Z,11.07
2019-06-15T01:04:02.980Z,10.50
2019-06-15T01:06:32.036Z,10.57
2019-06-15T01:09:01.050Z,10.00
2019-06-15T01:11:29.949Z,9.80
2019-06-15T01:13:58.967Z,10.93
2019-06-15T01:16:28.035Z,10.93
2019-06-15T01:18:57.017Z,11.27
2019-06-15T01:21:26.064Z,10.50
2019-06-15T01:23:55.066Z,11.03
2019-06-15T01:26:24.133Z,14.90
2019-06-15T01:28:53.104Z,11.37
2019-06-15T01:31:22.062Z,10.97
2019-06-15T01:33:50.991Z,10.73
2019-06-15T01:36:20.552Z,10.37
2019-06-15T01:38:49.405Z,9.97
2019-06-15T01:41:18.337Z,11.83
2019-06-15T01:43:47.454Z,11.27
2019-06-15T01:46:16.486Z,9.67
2019-06-15T01:48:45.601Z,10.63
2019-06-15T01:51:14.591Z,11.67
2019-06-15T01:53:43.520Z,10.47
2019-06-15T01:56:12.545Z,11.50
2019-06-15T01:58:42.023Z,10.97
2019-06-15T02:01:10.985Z,13.00
2019-06-15T02:03:39.960Z,10.70
2019-06-15T02:06:08.969Z,11.30
2019-06-15T02:08:37.932Z,9.73
2019-06-15T02:11:07.058Z,11.07
2019-06-15T02:13:35.894Z,12.67
2019-06-15T02:16:05.211Z,10.20
2019-06-15T02:18:34.113Z,10.73
2019-06-15T02:21:03.019Z,10.90
2019-06-15T02:23:32.163Z,9.97
2019-06-15T02:26:01.163Z,11.17
2019-06-15T02:28:30.116Z,10.27
2019-06-15T02:30:59.179Z,10.63
2019-06-15T02:33:28.098Z,11.50
2019-06-15T02:35:57.147Z,10.83
2019-06-15T02:38:26.116Z,11.87
2019-06-15T02:40:55.149Z,12.00
2019-06-15T02:43:24.571Z,11.60
2019-06-15T02:45:53.540Z,11.37
2019-06-15T02:48:22.561Z,10.90
2019-06-15T02:50:51.728Z,10.23
2019-06-15T02:53:20.602Z,10.97
2019-06-15T02:55:50.906Z,11.20
2019-06-15T02:58:20.329Z,11.80
2019-06-15T03:01:02.546Z,11.20
2019-06-15T03:03:31.579Z,11.87
2019-06-15T03:06:00.991Z,10.27
2019-06-15T03:08:30.190Z,12.70
2019-06-15T03:10:59.197Z,11.63
2019-06-15T03:13:28.348Z,11.53
2019-06-15T03:15:57.400Z,11.73
2019-06-15T03:18:26.386Z,11.57
2019-06-15T03:20:55.279Z,13.13
2019-06-15T03:23:24.407Z,11.83
2019-06-15T03:26:05.096Z,10.80
2019-06-15T03:28:24.193Z,12.87
2019-06-15T03:30:53.301Z,12.47
2019-06-15T03:33:22.282Z,11.47
2019-06-15T03:35:51.324Z,11.73
2019-06-15T03:38:20.228Z,12.00
2019-06-15T03:40:49.222Z,14.17
2019-06-15T03:43:18.572Z,11.87
2019-06-15T03:45:47.639Z,12.13
2019-06-15T03:48:16.616Z,11.60
2019-06-15T03:50:45.628Z,12.03
2019-06-15T03:53:14.620Z,12.23
2019-06-15T03:55:43.876Z,11.77
2019-06-15T03:58:12.896Z,11.83
2019-06-15T04:01:10.464Z,11.53
2019-06-15T04:03:41.246Z,15.63
2019-06-15T04:06:10.293Z,13.43
2019-06-15T04:08:39.174Z,15.03
2019-06-15T04:11:08.096Z,12.37
2019-06-15T04:13:37.272Z,11.53
2019-06-15T04:16:06.332Z,12.53
2019-06-15T04:18:35.354Z,14.20
2019-06-15T04:21:04.517Z,16.53
2019-06-15T04:23:33.561Z,12.03
2019-06-15T04:26:02.725Z,13.20
2019-06-15T04:28:31.927Z,11.47
2019-06-15T04:31:00.775Z,11.43
2019-06-15T04:33:30.039Z,14.30
2019-06-15T04:35:59.223Z,12.00
2019-06-15T04:38:28.276Z,12.87
2019-06-15T04:40:57.944Z,11.30
2019-06-15T04:43:27.264Z,12.80
2019-06-15T04:45:56.307Z,15.03
2019-06-15T04:48:25.371Z,17.67
2019-06-15T04:50:54.310Z,13.77
2019-06-15T04:53:23.326Z,13.67
2019-06-15T04:55:52.370Z,15.73
2019-06-15T04:58:21.462Z,15.10
2019-06-15T05:00:50.501Z,14.57
2019-06-15T05:03:19.598Z,11.77
2019-06-15T05:05:48.794Z,17.87
2019-06-15T05:08:18.181Z,18.77
2019-06-15T05:10:47.604Z,17.47
2019-06-15T05:13:17.082Z,13.20
2019-06-15T05:15:46.460Z,12.67
2019-06-15T05:18:15.740Z,12.53
2019-06-15T05:20:44.696Z,12.40
2019-06-15T05:23:16.250Z,13.00
2019-06-15T05:25:45.890Z,13.40
2019-06-15T05:28:15.278Z,15.80
2019-06-15T05:30:44.236Z,13.17
2019-06-15T05:33:13.397Z,12.47
2019-06-15T05:35:42.362Z,13.87
2019-06-15T05:38:11.933Z,15.40
2019-06-15T05:40:43.177Z,18.30
2019-06-15T05:43:12.986Z,14.23
2019-06-15T05:45:42.157Z,14.03
2019-06-15T05:48:11.362Z,12.43
2019-06-15T05:50:40.789Z,12.13
2019-06-15T05:53:10.132Z,14.23
2019-06-15T05:55:39.653Z,11.23
2019-06-15T05:58:08.733Z,10.80
2019-06-15T06:00:37.894Z,11.93
2019-06-15T06:03:07.145Z,10.93
2019-06-15T06:05:36.524Z,13.87
2019-06-15T06:08:09.151Z,13.47
2019-06-15T06:10:38.474Z,11.63
2019-06-15T06:13:07.707Z,13.47
2019-06-15T06:15:36.989Z,12.13
2019-06-15T06:18:06.606Z,11.00
2019-06-15T06:20:36.475Z,11.43
2019-06-15T06:23:05.933Z,10.97
2019-06-15T06:25:35.412Z,11.47
2019-06-15T06:28:05.652Z,13.73
2019-06-15T06:30:34.815Z,11.93
2019-06-15T06:33:04.040Z,12.07
2019-06-15T06:35:33.284Z,11.57
2019-06-15T06:38:02.400Z,10.00
2019-06-15T06:40:31.407Z,12.93
2019-06-15T06:43:00.627Z,11.33
2019-06-15T06:45:30.112Z,11.20
2019-06-15T06:47:59.376Z,12.93
2019-06-15T06:50:28.740Z,12.50
2019-06-15T06:52:57.992Z,11.37
2019-06-15T06:55:27.290Z,11.33
2019-06-15T06:57:57.384Z,11.63
2019-06-15T07:00:27.541Z,11.93
2019-06-15T07:02:56.732Z,13.07
2019-06-15T07:05:26.359Z,12.23
2019-06-15T07:07:55.364Z,12.37
2019-06-15T07:10:24.464Z,12.60
2019-06-15T07:12:53.598Z,12.60
2019-06-15T07:15:22.945Z,12.70
2019-06-15T07:17:52.085Z,12.30
2019-06-15T07:20:21.535Z,10.90
2019-06-15T07:22:50.578Z,11.00
2019-06-15T07:25:19.643Z,13.03
2019-06-15T07:27:48.665Z,19.73
2019-06-15T07:30:18.233Z,16.27
2019-06-15T07:32:47.427Z,11.73
2019-06-15T07:35:16.774Z,11.37
2019-06-15T07:37:45.982Z,11.78
2019-06-15T07:40:15.216Z,12.27
2019-06-15T07:42:47.584Z,13.53
2019-06-15T07:45:17.113Z,12.33
2019-06-15T07:47:46.131Z,12.13
2019-06-15T07:50:15.355Z,11.17
2019-06-15T07:52:45.170Z,11.23
2019-06-15T07:55:14.374Z,12.73
2019-06-15T07:57:43.702Z,11.50
2019-06-15T08:00:13.001Z,15.23
2019-06-15T08:02:42.133Z,21.07
2019-06-15T08:05:11.639Z,17.07
2019-06-15T08:07:40.936Z,14.50
2019-06-15T08:10:10.238Z,13.83
2019-06-15T08:12:39.101Z,13.63
2019-06-15T08:15:09.522Z,12.07
2019-06-15T08:17:38.637Z,12.43
2019-06-15T08:20:10.531Z,14.95
2019-06-15T08:22:39.749Z,11.40
2019-06-15T08:25:09.851Z,17.73
2019-06-15T08:27:39.573Z,23.60
2019-06-15T08:30:10.338Z,15.07
2019-06-15T08:32:39.757Z,15.73
2019-06-15T08:35:09.680Z,12.90
2019-06-15T08:37:39.779Z,12.15
2019-06-15T08:40:09.418Z,12.53
2019-06-15T08:42:38.631Z,15.55
2019-06-15T08:45:09.478Z,12.63
2019-06-15T08:47:38.946Z,14.30
2019-06-15T08:50:08.254Z,15.88
2019-06-15T08:52:37.301Z,16.32
2019-06-15T08:55:07.415Z,14.90
2019-06-15T08:57:36.645Z,14.67
2019-06-15T09:00:07.231Z,14.87
2019-06-15T09:02:36.391Z,14.40
2019-06-15T09:05:06.365Z,15.23
2019-06-15T09:07:35.391Z,15.10
2019-06-15T09:10:04.832Z,14.50
2019-06-15T09:12:33.776Z,17.90
2019-06-15T09:15:02.765Z,17.45
2019-06-15T09:17:32.121Z,17.37
2019-06-15T09:20:13.955Z,14.98
2019-06-15T09:22:43.007Z,16.23
2019-06-15T09:25:12.078Z,14.70
2019-06-15T09:27:41.950Z,15.00
2019-06-15T09:30:11.401Z,14.37
2019-06-15T09:32:40.403Z,15.13
2019-06-15T09:35:09.949Z,13.78
2019-06-15T09:37:39.081Z,14.70
2019-06-15T09:40:10.013Z,15.83
2019-06-15T09:42:38.941Z,15.23
2019-06-15T09:45:09.405Z,16.23
2019-06-15T09:47:38.587Z,14.10
2019-06-15T09:50:12.071Z,17.00
2019-06-15T09:52:41.221Z,28.17
2019-06-15T09:55:11.914Z,20.68
2019-06-15T09:57:40.983Z,17.23
2019-06-15T10:00:10.685Z,17.02
2019-06-15T10:02:39.893Z,15.48
2019-06-15T10:05:09.706Z,18.12
2019-06-15T10:07:38.795Z,16.73
2019-06-15T10:10:09.094Z,15.83
2019-06-15T10:12:38.447Z,21.90
2019-06-15T10:15:07.897Z,18.35
2019-06-15T10:17:37.053Z,18.02
2019-06-15T10:20:07.093Z,16.75
2019-06-15T10:22:36.221Z,18.98
2019-06-15T10:25:05.891Z,19.17
2019-06-15T10:27:35.263Z,16.50
2019-06-15T10:30:04.964Z,16.23
2019-06-15T10:32:33.971Z,15.38
2019-06-15T10:35:03.463Z,16.35
2019-06-15T10:37:32.702Z,15.73
2019-06-15T10:40:01.987Z,19.65
2019-06-15T10:42:31.029Z,22.62
2019-06-15T10:45:00.057Z,17.15
2019-06-15T10:47:29.193Z,21.33
2019-06-15T10:49:58.590Z,20.27
2019-06-15T10:52:27.878Z,17.17
2019-06-15T10:54:57.049Z,17.35
2019-06-15T10:57:26.432Z,17.62
2019-06-15T10:59:57.601Z,19.50
2019-06-15T11:02:26.483Z,19.32
2019-06-15T11:04:56.201Z,29.10
2019-06-15T11:07:25.642Z,22.05
2019-06-15T11:09:54.963Z,21.10
2019-06-15T11:12:24.414Z,20.57
2019-06-15T11:14:56.106Z,22.30
2019-06-15T11:17:25.302Z,17.23
2019-06-15T11:19:54.849Z,19.98
2019-06-15T11:22:23.988Z,18.52
2019-06-15T11:24:53.272Z,20.65
2019-06-15T11:27:22.770Z,18.48
2019-06-15T11:29:52.015Z,18.12
2019-06-15T11:32:27.187Z,20.55
2019-06-15T11:35:22.887Z,23.85
2019-06-15T11:38:01.854Z,19.48
2019-06-15T11:40:55.352Z,19.90
2019-06-15T11:43:24.841Z,17.85
2019-06-15T11:45:54.053Z,18.60
2019-06-15T11:48:23.314Z,16.95
2019-06-15T11:50:52.427Z,16.48
2019-06-15T11:53:21.530Z,15.90
2019-06-15T11:55:50.510Z,15.00
2019-06-15T11:58:19.422Z,16.10
2019-06-15T12:00:48.659Z,17.92
2019-06-15T12:03:17.626Z,17.27
2019-06-15T12:05:46.835Z,15.48
2019-06-15T12:08:15.923Z,16.95
2019-06-15T12:10:49.992Z,15.00
2019-06-15T12:13:19.089Z,13.98
2019-06-15T12:15:48.151Z,14.18
2019-06-15T12:18:17.408Z,13.15
2019-06-15T12:20:46.615Z,15.60
2019-06-15T12:23:15.772Z,16.25
2019-06-15T12:25:45.108Z,16.17
2019-06-15T12:28:14.245Z,14.95
2019-06-15T12:30:47.462Z,15.60
2019-06-15T12:33:14.829Z,15.63
2019-06-15T12:35:44.227Z,17.25
2019-06-15T12:38:13.252Z,16.77
2019-06-15T12:40:42.309Z,15.18
2019-06-15T12:43:11.306Z,9.40
2019-06-15T12:45:40.916Z,8.88
2019-06-15T12:48:09.944Z,10.75
2019-06-15T12:50:39.029Z,9.90
2019-06-15T12:53:08.637Z,9.45
2019-06-15T12:55:38.468Z,11.75
2019-06-15T12:58:07.942Z,10.25
2019-06-15T13:00:39.772Z,12.33
2019-06-15T13:03:10.179Z,10.25
2019-06-15T13:05:39.328Z,10.72
2019-06-15T13:08:08.492Z,10.35
2019-06-15T13:10:37.694Z,14.00
2019-06-15T13:13:06.673Z,11.53
2019-06-15T13:15:36.047Z,13.58
2019-06-15T13:18:06.639Z,18.70
2019-06-15T13:20:36.837Z,19.12
2019-06-15T13:23:05.923Z,13.32
2019-06-15T13:25:34.987Z,11.45
2019-06-15T13:28:03.968Z,13.03
2019-06-15T13:30:33.257Z,14.23
2019-06-15T13:33:02.355Z,12.07
2019-06-15T13:35:31.342Z,11.75
2019-06-15T13:38:00.349Z,16.62
2019-06-15T13:40:29.868Z,13.28
2019-06-15T13:42:59.208Z,11.85
2019-06-15T13:45:28.363Z,9.40
2019-06-15T13:47:57.792Z,8.93
2019-06-15T13:50:27.021Z,8.63
2019-06-15T13:52:56.091Z,9.95
2019-06-15T13:55:25.129Z,6.33
2019-06-15T13:57:56.989Z,7.30
2019-06-15T14:00:26.123Z,9.33
2019-06-15T14:02:55.396Z,8.95
2019-06-15T14:05:24.489Z,9.63
2019-06-15T14:07:53.911Z,8.53
2019-06-15T14:10:23.232Z,7.58
2019-06-15T14:12:52.433Z,7.37
2019-06-15T14:15:21.618Z,7.00
2019-06-15T14:17:50.703Z,6.47
2019-06-15T14:20:19.851Z,9.20
2019-06-15T14:22:49.059Z,6.50
2019-06-15T14:25:18.142Z,8.03
2019-06-15T14:27:47.369Z,8.20
2019-06-15T14:30:16.777Z,8.98
2019-06-15T14:32:46.050Z,10.85
2019-06-15T14:35:15.849Z,6.78
2019-06-15T14:37:45.661Z,8.05
2019-06-15T14:40:16.685Z,7.08
2019-06-15T14:42:46.294Z,8.05
2019-06-15T14:45:16.764Z,6.37
2019-06-15T14:47:45.987Z,7.35
2019-06-15T14:50:15.210Z,7.87
2019-06-15T14:52:44.177Z,6.47
2019-06-15T14:55:13.669Z,7.75
2019-06-15T14:57:44.894Z,8.55
2019-06-15T15:00:16.666Z,6.53
2019-06-15T15:02:46.825Z,7.83
2019-06-15T15:05:17.934Z,10.10
2019-06-15T15:07:47.103Z,7.37
2019-06-15T15:10:16.461Z,8.53
2019-06-15T15:12:46.039Z,12.50
2019-06-15T15:15:17.074Z,9.28
2019-06-15T15:17:46.432Z,9.73
2019-06-15T15:20:17.325Z,10.38
2019-06-15T15:22:46.651Z,8.68
2019-06-15T15:25:16.879Z,11.78
2019-06-15T15:27:46.761Z,8.90
2019-06-15T15:30:27.177Z,8.78
2019-06-15T15:32:57.147Z,7.45
2019-06-15T15:35:26.836Z,8.15
2019-06-15T15:37:56.730Z,7.30
2019-06-15T15:40:27.409Z,7.42
2019-06-15T15:42:57.442Z,9.13
2019-06-15T15:45:26.647Z,6.92
2019-06-15T15:47:55.721Z,6.90
2019-06-15T15:50:26.315Z,8.25
2019-06-15T15:52:56.783Z,6.35
2019-06-15T15:55:31.442Z,7.42
2019-06-15T15:58:00.399Z,7.95
2019-06-15T16:00:33.560Z,6.75
2019-06-15T16:03:02.952Z,5.25
2019-06-15T16:05:36.816Z,6.22
2019-06-15T16:08:06.590Z,6.05
2019-06-15T16:10:37.346Z,5.70
2019-06-15T16:13:06.765Z,6.95
2019-06-15T16:15:37.157Z,6.75
2019-06-15T16:18:06.938Z,6.55
2019-06-15T16:20:37.057Z,7.67
2019-06-15T16:23:07.590Z,6.92
2019-06-15T16:25:37.350Z,7.42
2019-06-15T16:28:12.509Z,8.40
2019-06-15T16:31:01.618Z,7.35
2019-06-15T16:33:13.129Z,6.03
2019-06-15T16:35:42.338Z,7.08
2019-06-15T16:38:11.668Z,7.95
2019-06-15T16:40:40.958Z,6.87
2019-06-15T16:43:10.584Z,9.15
2019-06-15T16:45:39.930Z,6.58
2019-06-15T16:48:09.123Z,7.10
2019-06-15T16:50:38.084Z,7.72
2019-06-15T16:53:07.298Z,8.33
2019-06-15T16:55:36.981Z,5.55
2019-06-15T16:58:07.461Z,7.47
2019-06-15T17:00:37.324Z,6.28
2019-06-15T17:03:19.849Z,7.30
2019-06-15T17:05:37.567Z,5.58
2019-06-15T17:08:07.295Z,6.20
2019-06-15T17:10:41.010Z,5.42
2019-06-15T17:13:10.282Z,5.15
2019-06-15T17:15:39.628Z,5.83
2019-06-15T17:18:09.146Z,4.92
2019-06-15T17:20:47.672Z,5.42
2019-06-15T17:23:21.928Z,4.87
2019-06-15T17:25:54.527Z,9.40
2019-06-15T17:28:23.593Z,4.42
2019-06-15T17:30:56.228Z,4.58
2019-06-15T17:33:34.222Z,4.25
2019-06-15T17:36:02.653Z,6.33
2019-06-15T17:38:27.394Z,7.03
2019-06-15T17:40:57.291Z,4.72
2019-06-15T17:43:27.121Z,4.72
2019-06-15T17:45:58.540Z,3.95
2019-06-15T17:48:27.999Z,4.28
2019-06-15T17:50:57.371Z,5.65
2019-06-15T17:53:26.706Z,6.55
2019-06-15T17:55:56.175Z,6.00
2019-06-15T17:58:26.342Z,6.10
2019-06-15T18:00:57.533Z,7.85
2019-06-15T18:03:27.332Z,5.53
2019-06-15T18:05:58.299Z,4.53
2019-06-15T18:08:29.007Z,5.08
2019-06-15T18:10:58.925Z,5.63
2019-06-15T18:13:30.333Z,5.40
2019-06-15T18:16:00.555Z,4.30
2019-06-15T18:18:32.310Z,4.92
2019-06-15T18:21:02.069Z,4.45
2019-06-15T18:23:31.422Z,5.75
2019-06-15T18:26:00.455Z,4.83
2019-06-15T18:28:30.666Z,4.55
2019-06-15T18:30:59.641Z,4.42
2019-06-15T18:33:29.106Z,7.03
2019-06-15T18:35:58.457Z,5.30
2019-06-15T18:38:27.652Z,4.20
2019-06-15T18:40:56.564Z,4.17
2019-06-15T18:43:26.206Z,4.12
2019-06-15T18:45:56.835Z,4.53
2019-06-15T18:48:26.489Z,5.50
2019-06-15T18:50:56.104Z,5.67
2019-06-15T18:53:26.833Z,4.77
2019-06-15T18:55:56.370Z,4.10
2019-06-15T18:58:26.203Z,5.93
2019-06-15T19:00:55.782Z,4.03
2019-06-15T19:03:26.261Z,3.90
2019-06-15T19:05:56.963Z,8.27
2019-06-15T19:08:26.271Z,3.20
2019-06-15T19:10:56.226Z,3.80
2019-06-15T19:13:26.857Z,3.97
2019-06-15T19:15:57.262Z,3.70
2019-06-15T19:18:26.800Z,3.63
2019-06-15T19:20:56.294Z,4.33
2019-06-15T19:23:26.601Z,4.20
2019-06-15T19:25:57.419Z,4.33
2019-06-15T19:28:27.540Z,3.43
2019-06-15T19:30:58.795Z,3.50
2019-06-15T19:33:29.199Z,3.80
2019-06-15T19:35:58.414Z,3.80
2019-06-15T19:38:27.907Z,3.90
2019-06-15T19:40:57.831Z,3.63
2019-06-15T19:43:27.142Z,4.67
2019-06-15T19:45:56.683Z,5.17
2019-06-15T19:48:26.795Z,4.37
2019-06-15T19:50:56.793Z,5.30
2019-06-15T19:53:27.310Z,4.17
2019-06-15T19:55:57.369Z,4.10
2019-06-15T19:58:26.885Z,3.93
2019-06-15T20:00:58.750Z,4.17
2019-06-15T20:03:27.790Z,5.47
2019-06-15T20:05:57.116Z,5.30
2019-06-15T20:08:26.621Z,4.73
2019-06-15T20:10:56.306Z,4.33
2019-06-15T20:13:25.823Z,5.17
2019-06-15T20:15:57.116Z,4.33
2019-06-15T20:18:26.776Z,4.40
2019-06-15T20:20:56.665Z,4.40
2019-06-15T20:23:26.403Z,4.70
2019-06-15T20:25:56.607Z,4.40
2019-06-15T20:28:27.297Z,4.30
2019-06-15T20:30:57.137Z,4.67
2019-06-15T20:33:26.399Z,4.47
2019-06-15T20:35:57.404Z,4.77
2019-06-15T20:38:26.935Z,4.40
2019-06-15T20:40:56.653Z,3.93
2019-06-15T20:43:27.351Z,4.30
2019-06-15T20:45:56.634Z,4.60
2019-06-15T20:48:26.813Z,4.67
2019-06-15T20:50:56.700Z,4.50
2019-06-15T20:53:26.283Z,5.50
2019-06-15T20:55:57.029Z,3.83
2019-06-15T20:58:26.456Z,3.87
2019-06-15T21:00:56.315Z,3.80
2019-06-15T21:03:26.815Z,3.90
2019-06-15T21:05:57.246Z,4.27
2019-06-15T21:08:26.806Z,3.73
2019-06-15T21:10:56.365Z,4.10
2019-06-15T21:13:26.456Z,4.17
2019-06-15T21:15:56.783Z,3.50
2019-06-15T21:18:26.586Z,3.83
2019-06-15T21:20:56.225Z,4.67
2019-06-15T21:23:26.807Z,4.53
2019-06-15T21:25:57.179Z,3.13
2019-06-15T21:28:27.302Z,2.47
2019-06-15T21:30:56.615Z,2.30
2019-06-15T21:33:26.512Z,3.13
2019-06-15T21:35:56.815Z,2.50
2019-06-15T21:38:26.497Z,2.17
2019-06-15T21:40:57.017Z,3.23
2019-06-15T21:43:26.628Z,3.30
2019-06-15T21:45:57.078Z,2.27
2019-06-15T21:48:26.939Z,1.93
2019-06-15T21:50:59.292Z,1.97
2019-06-15T21:53:27.090Z,2.13
2019-06-15T21:55:56.366Z,2.07
2019-06-15T21:58:27.181Z,1.83
2019-06-15T22:01:22.449Z,2.53
2019-06-15T22:03:51.439Z,2.43
2019-06-15T22:06:20.574Z,1.83
2019-06-15T22:08:49.614Z,2.87
2019-06-15T22:11:18.705Z,2.67
2019-06-15T22:13:47.813Z,2.03
2019-06-15T22:16:17.215Z,2.13
2019-06-15T22:18:47.410Z,2.10
2019-06-15T22:21:17.033Z,2.47
2019-06-15T22:23:47.534Z,1.70
2019-06-15T22:26:17.188Z,3.43
2019-06-15T22:28:47.116Z,2.63
2019-06-15T22:31:17.087Z,1.47
2019-06-15T22:33:47.244Z,1.63
2019-06-15T22:36:24.905Z,1.80
2019-06-15T22:38:47.572Z,1.83
2019-06-15T22:41:16.845Z,1.67
2019-06-15T22:43:46.376Z,1.27
2019-06-15T22:46:16.628Z,2.57
2019-06-15T22:48:46.979Z,1.70
2019-06-15T22:51:17.008Z,1.50
2019-06-15T22:53:47.177Z,2.23
2019-06-15T22:56:17.269Z,1.70
2019-06-15T22:58:46.683Z,1.50
2019-06-15T23:01:16.858Z,2.03
2019-06-15T23:03:46.771Z,1.67
2019-06-15T23:06:16.351Z,1.60
2019-06-15T23:08:46.987Z,2.30
2019-06-15T23:11:17.530Z,1.83
2019-06-15T23:13:47.233Z,1.50
2019-06-15T23:16:16.594Z,2.83
2019-06-15T23:18:46.729Z,1.47
2019-06-15T23:21:17.296Z,0.87
2019-06-15T23:23:47.168Z,1.63
2019-06-15T23:26:16.712Z,1.27
2019-06-15T23:28:46.717Z,1.00
2019-06-15T23:31:16.701Z,1.00
2019-06-15T23:33:46.767Z,1.20
2019-06-15T23:36:21.697Z,1.00
2019-06-15T23:38:50.646Z,1.20
2019-06-15T23:41:19.699Z,2.40
2019-06-15T23:43:48.915Z,2.30
2019-06-15T23:46:18.630Z,2.13
2019-06-15T23:48:47.681Z,2.40
2019-06-15T23:51:17.105Z,0.93
2019-06-15T23:53:46.394Z,2.20
2019-06-15T23:56:15.466Z,0.80
2019-06-15T23:58:46.343Z,1.13
